Weather at Torreón Airport

Public forecast

Using degrees Celsius for public forecast. Weather courtesy of forecast.io.

Closest aviation weather report (METAR) to Torreón Airport

Closest report is Carriel Sur Airport, 24.7 nm (45.8 km) SW. Retrieved 2021/12/05 21:00 UTC (6 minutes ago):

SCIE 052100Z 03011KT CAVOK 22/13 Q1010

Closest aviation forecast (TAF) to Torreón Airport

Closest forecast is Carriel Sur Airport, 24.7 nm (45.8 km) SW. Retrieved 2021/12/05 18:00 UTC (3 hours ago):

TAF SCIE 051613Z 0518/0618 23012KT CAVOK TX24/0519Z TN10/0610Z BECMG 0602/0604 22004KT BECMG 0604/0606 SCT010 TEMPO 0606/0614 33004KT 4000 BR SCT003 OVC006 BECMG 0613/0615 BKN008 BKN015